createdAt,value
2023-02-02T00:02:12.580Z,6.82
2023-02-02T00:04:39.162Z,6.81
2023-02-02T00:07:05.746Z,6.81
2023-02-02T00:09:32.935Z,6.81
2023-02-02T00:12:00.911Z,6.80
2023-02-02T00:14:27.837Z,6.77
2023-02-02T00:16:55.874Z,6.77
2023-02-02T00:19:32.449Z,6.76
2023-02-02T00:21:59.396Z,6.72
2023-02-02T00:24:26.160Z,6.70
2023-02-02T00:26:56.864Z,6.69
2023-02-02T00:29:29.378Z,6.64
2023-02-02T00:31:56.524Z,6.62
2023-02-02T00:34:23.681Z,6.62
2023-02-02T00:36:51.098Z,6.61
2023-02-02T00:39:20.548Z,6.62
2023-02-02T00:41:47.747Z,6.61
2023-02-02T00:44:33.007Z,6.61
2023-02-02T00:46:59.756Z,6.62
2023-02-02T00:49:26.492Z,6.61
2023-02-02T00:51:53.031Z,6.63
2023-02-02T00:54:19.645Z,6.63
2023-02-02T00:56:46.223Z,6.64
2023-02-02T00:59:12.959Z,6.65
2023-02-02T01:01:39.505Z,6.65
2023-02-02T01:04:06.120Z,6.66
2023-02-02T01:06:32.728Z,6.65
2023-02-02T01:08:59.487Z,6.66
2023-02-02T01:11:26.150Z,6.66
2023-02-02T01:13:52.703Z,6.64
2023-02-02T01:16:22.404Z,6.63
2023-02-02T01:18:50.018Z,6.63
2023-02-02T01:21:16.672Z,6.62
2023-02-02T01:23:43.320Z,6.61
2023-02-02T01:26:11.866Z,6.59
2023-02-02T01:28:39.180Z,6.59
2023-02-02T01:31:09.229Z,6.54
2023-02-02T01:33:36.075Z,6.52
2023-02-02T01:36:06.063Z,6.50
2023-02-02T01:38:32.902Z,6.48
2023-02-02T01:40:59.547Z,6.48
2023-02-02T01:43:30.357Z,6.47
2023-02-02T01:45:58.726Z,6.46
2023-02-02T01:48:30.031Z,6.45
2023-02-02T01:51:01.895Z,6.44
2023-02-02T01:53:29.800Z,6.44
2023-02-02T01:55:57.015Z,6.40
2023-02-02T01:58:28.476Z,6.40
2023-02-02T02:00:55.214Z,6.40
2023-02-02T02:03:25.693Z,6.40
2023-02-02T02:06:00.201Z,6.38
2023-02-02T02:08:41.892Z,6.38
2023-02-02T02:11:08.441Z,6.37
2023-02-02T02:13:56.432Z,6.37
2023-02-02T02:16:49.137Z,6.36
2023-02-02T02:20:04.985Z,6.36
2023-02-02T02:23:04.020Z,6.35
2023-02-02T02:26:18.511Z,6.34
2023-02-02T02:29:03.851Z,6.35
2023-02-02T02:31:33.452Z,6.35
2023-02-02T02:34:10.270Z,6.35
2023-02-02T02:36:50.214Z,6.34
2023-02-02T02:39:42.681Z,6.34
2023-02-02T02:42:20.320Z,6.34
2023-02-02T02:44:49.503Z,6.35
2023-02-02T02:47:18.661Z,6.32
2023-02-02T02:49:47.223Z,6.31
2023-02-02T02:52:14.111Z,6.29
2023-02-02T02:54:55.208Z,6.29
2023-02-02T02:57:30.801Z,6.29
2023-02-02T03:00:22.540Z,6.29
2023-02-02T03:03:13.918Z,6.33
2023-02-02T03:05:46.524Z,6.35
2023-02-02T03:08:40.818Z,6.37
2023-02-02T03:11:10.583Z,6.40
2023-02-02T03:13:37.517Z,6.41
2023-02-02T03:16:04.373Z,6.43
2023-02-02T03:18:32.893Z,6.44
2023-02-02T03:20:59.597Z,6.45
2023-02-02T03:23:26.910Z,6.48
2023-02-02T03:25:54.484Z,6.49
2023-02-02T03:28:23.253Z,6.53
2023-02-02T03:30:50.761Z,6.53
2023-02-02T03:33:18.632Z,6.56
2023-02-02T03:35:45.653Z,6.59
2023-02-02T03:38:13.611Z,6.59
2023-02-02T03:40:40.821Z,6.61
2023-02-02T03:43:07.384Z,6.61
2023-02-02T03:45:37.383Z,6.63
2023-02-02T03:48:05.897Z,6.64
2023-02-02T03:50:32.599Z,6.64
2023-02-02T03:52:59.210Z,6.65
2023-02-02T03:55:26.024Z,6.68
2023-02-02T03:57:52.728Z,6.67
2023-02-02T04:00:19.726Z,6.72
2023-02-02T04:02:46.282Z,6.70
2023-02-02T04:05:12.949Z,6.71
2023-02-02T04:07:39.519Z,6.73
2023-02-02T04:10:06.473Z,6.71
2023-02-02T04:12:32.981Z,6.71
2023-02-02T04:14:59.581Z,6.72
2023-02-02T04:17:26.150Z,6.71
2023-02-02T04:19:58.273Z,6.73
2023-02-02T04:22:26.094Z,6.74
2023-02-02T04:24:52.685Z,6.75
2023-02-02T04:27:19.703Z,6.74
2023-02-02T04:29:46.403Z,6.74
2023-02-02T04:32:15.705Z,6.74
2023-02-02T04:34:42.782Z,6.74
2023-02-02T04:37:10.412Z,6.77
2023-02-02T04:39:37.191Z,6.81
2023-02-02T04:42:04.026Z,6.83
2023-02-02T04:44:30.554Z,6.87
2023-02-02T04:46:58.324Z,6.87
2023-02-02T04:49:24.937Z,6.89
2023-02-02T04:51:51.574Z,6.91
2023-02-02T04:54:18.214Z,6.94
2023-02-02T04:56:44.963Z,6.95
2023-02-02T04:59:11.570Z,6.99
2023-02-02T05:01:38.111Z,7.01
2023-02-02T05:04:04.765Z,7.01
2023-02-02T05:06:31.380Z,7.00
2023-02-02T05:08:57.966Z,7.01
2023-02-02T05:11:26.768Z,7.00
2023-02-02T05:13:55.123Z,7.01
2023-02-02T05:16:23.512Z,7.02
2023-02-02T05:18:52.172Z,7.03
2023-02-02T05:21:19.509Z,7.03
2023-02-02T05:23:46.364Z,7.02
2023-02-02T05:26:19.576Z,7.00
2023-02-02T05:28:46.463Z,7.00
2023-02-02T05:31:13.005Z,6.99
2023-02-02T05:33:41.602Z,7.01
2023-02-02T05:36:08.315Z,7.00
2023-02-02T05:38:35.123Z,7.01
2023-02-02T05:41:02.572Z,7.01
2023-02-02T05:43:30.595Z,7.01
2023-02-02T05:45:58.663Z,7.01
2023-02-02T05:48:25.560Z,7.04
2023-02-02T05:51:17.023Z,7.03
2023-02-02T05:53:45.595Z,7.04
2023-02-02T05:56:13.202Z,7.01
2023-02-02T05:58:39.777Z,7.02
2023-02-02T06:01:06.417Z,7.02
2023-02-02T06:03:33.174Z,7.01
2023-02-02T06:05:59.959Z,6.99
2023-02-02T06:08:26.594Z,6.98
2023-02-02T06:10:53.137Z,6.97
2023-02-02T06:13:19.753Z,6.98
2023-02-02T06:15:46.337Z,6.97
2023-02-02T06:18:12.946Z,6.94
2023-02-02T06:20:39.468Z,6.95
2023-02-02T06:23:06.773Z,6.94
2023-02-02T06:25:34.302Z,6.93
2023-02-02T06:28:01.382Z,6.93
2023-02-02T06:30:27.996Z,6.92
2023-02-02T06:32:56.314Z,6.91
2023-02-02T06:35:23.441Z,6.89
2023-02-02T06:37:50.336Z,6.89
2023-02-02T06:40:17.222Z,6.87
2023-02-02T06:42:43.877Z,6.87
2023-02-02T06:45:11.096Z,6.87
2023-02-02T06:47:37.693Z,6.87
2023-02-02T06:50:05.001Z,6.86
2023-02-02T06:52:31.508Z,6.86
2023-02-02T06:54:57.985Z,6.87
2023-02-02T06:57:24.584Z,6.87
2023-02-02T06:59:52.394Z,6.86
2023-02-02T07:02:19.148Z,6.86
2023-02-02T07:04:45.919Z,6.85
2023-02-02T07:07:12.497Z,6.85
2023-02-02T07:09:39.034Z,6.86
2023-02-02T07:12:06.572Z,6.85
2023-02-02T07:14:33.178Z,6.84
2023-02-02T07:16:59.716Z,6.86
2023-02-02T07:19:26.403Z,6.86
2023-02-02T07:21:52.957Z,6.84
2023-02-02T07:24:19.644Z,6.85
2023-02-02T07:26:46.197Z,6.85
2023-02-02T07:29:14.762Z,6.85
2023-02-02T07:31:41.242Z,6.84
2023-02-02T07:34:09.157Z,6.84
2023-02-02T07:36:35.768Z,6.84
2023-02-02T07:39:05.135Z,6.85
2023-02-02T07:41:34.797Z,6.86
2023-02-02T07:44:01.909Z,6.85
2023-02-02T07:46:28.647Z,6.87
2023-02-02T07:48:56.476Z,6.87
2023-02-02T07:51:24.206Z,6.89
2023-02-02T07:53:53.785Z,6.88
2023-02-02T07:56:23.372Z,6.90
2023-02-02T07:58:52.963Z,6.92
2023-02-02T08:01:23.295Z,6.94
2023-02-02T08:03:50.996Z,6.96
2023-02-02T08:06:18.957Z,6.96
2023-02-02T08:08:46.122Z,6.98
2023-02-02T08:11:14.309Z,7.00
2023-02-02T08:13:42.060Z,7.04
2023-02-02T08:16:09.667Z,7.08
2023-02-02T08:18:37.336Z,7.10
2023-02-02T08:21:05.597Z,7.13
2023-02-02T08:23:32.175Z,7.12
2023-02-02T08:26:20.242Z,7.13
2023-02-02T08:28:51.552Z,7.11
2023-02-02T08:31:23.088Z,7.12
2023-02-02T08:33:50.848Z,7.17
2023-02-02T08:36:20.309Z,7.17
2023-02-02T08:38:47.611Z,7.19
2023-02-02T08:41:16.597Z,7.23
2023-02-02T08:43:44.324Z,7.25
2023-02-02T08:46:13.935Z,7.31
2023-02-02T08:48:41.489Z,7.39
2023-02-02T08:51:11.278Z,7.44
2023-02-02T08:53:37.894Z,7.45
2023-02-02T08:56:10.303Z,7.48
2023-02-02T08:58:36.953Z,7.53
2023-02-02T09:01:09.179Z,7.59
2023-02-02T09:03:35.785Z,7.65
2023-02-02T09:06:07.487Z,7.69
2023-02-02T09:08:34.288Z,7.72
2023-02-02T09:11:18.376Z,7.73
2023-02-02T09:13:47.053Z,7.77
2023-02-02T09:16:16.247Z,7.83
2023-02-02T09:18:44.351Z,7.89
2023-02-02T09:21:14.592Z,7.92
2023-02-02T09:23:43.418Z,7.99
2023-02-02T09:26:10.475Z,8.02
2023-02-02T09:28:39.424Z,8.06
2023-02-02T09:31:06.849Z,8.09
2023-02-02T09:33:33.818Z,8.07
2023-02-02T09:36:11.526Z,8.09
2023-02-02T09:38:39.852Z,8.09
2023-02-02T09:41:38.261Z,8.06
2023-02-02T09:44:20.078Z,8.05
2023-02-02T09:46:52.534Z,8.07
2023-02-02T09:49:26.027Z,8.06
2023-02-02T09:52:02.541Z,8.06
2023-02-02T09:54:37.537Z,8.09
2023-02-02T09:57:22.385Z,8.11
2023-02-02T09:59:52.264Z,8.06
2023-02-02T10:02:24.850Z,8.04
2023-02-02T10:04:56.449Z,8.07
2023-02-02T10:07:45.713Z,8.10
2023-02-02T10:10:19.318Z,8.15
2023-02-02T10:13:02.964Z,8.18
2023-02-02T10:15:37.283Z,8.23
2023-02-02T10:18:29.787Z,8.18
2023-02-02T10:20:59.976Z,8.13
2023-02-02T10:23:45.634Z,8.13
2023-02-02T10:26:20.466Z,8.13
2023-02-02T10:29:05.080Z,8.15
2023-02-02T10:31:50.346Z,8.27
2023-02-02T10:34:32.129Z,8.33
2023-02-02T10:37:22.556Z,8.40
2023-02-02T10:40:15.240Z,8.40
2023-02-02T10:43:34.646Z,8.44
2023-02-02T10:46:03.916Z,8.44
2023-02-02T10:48:36.692Z,8.49
2023-02-02T10:51:14.173Z,8.54
2023-02-02T10:53:46.939Z,8.52
2023-02-02T10:56:14.273Z,8.51
2023-02-02T10:59:02.124Z,8.54
2023-02-02T11:01:28.657Z,8.61
2023-02-02T11:04:14.887Z,8.67
2023-02-02T11:06:51.201Z,8.61
2023-02-02T11:09:39.709Z,8.54
2023-02-02T11:12:33.105Z,8.54
2023-02-02T11:15:01.840Z,8.55
2023-02-02T11:17:29.509Z,8.60
2023-02-02T11:19:56.432Z,8.60
2023-02-02T11:22:40.286Z,8.56
2023-02-02T11:25:37.988Z,8.58
2023-02-02T11:28:20.598Z,8.60
2023-02-02T11:30:52.294Z,8.67
2023-02-02T11:33:35.923Z,8.77
2023-02-02T11:36:05.859Z,8.85
2023-02-02T11:38:33.134Z,8.86
2023-02-02T11:41:13.004Z,8.79
2023-02-02T11:43:49.260Z,8.75
2023-02-02T11:46:21.229Z,8.71
2023-02-02T11:48:50.860Z,8.69
2023-02-02T11:51:26.528Z,8.72
2023-02-02T11:54:40.419Z,8.73
2023-02-02T11:57:12.278Z,8.74
2023-02-02T11:59:41.393Z,8.71
2023-02-02T12:02:20.110Z,8.67
2023-02-02T12:04:48.223Z,8.65
2023-02-02T12:07:29.300Z,8.64
2023-02-02T12:10:34.513Z,8.62
2023-02-02T12:13:51.712Z,8.60
2023-02-02T12:16:53.454Z,8.57
2023-02-02T12:19:40.762Z,8.54
2023-02-02T12:22:35.730Z,8.53
2023-02-02T12:25:14.447Z,8.51
2023-02-02T12:27:55.396Z,8.49
2023-02-02T12:30:38.138Z,8.48
2023-02-02T12:33:23.529Z,8.47
2023-02-02T12:36:06.522Z,8.46
2023-02-02T12:38:45.856Z,8.45
2023-02-02T12:41:30.422Z,8.43
2023-02-02T12:44:11.777Z,8.44
2023-02-02T12:46:58.707Z,8.44
2023-02-02T12:49:47.518Z,8.45
2023-02-02T12:52:22.866Z,8.44
2023-02-02T12:55:04.790Z,8.47
2023-02-02T12:57:45.217Z,8.45
2023-02-02T13:00:38.392Z,8.44
2023-02-02T13:03:33.064Z,8.38
2023-02-02T13:06:18.014Z,8.35
2023-02-02T13:09:01.574Z,8.33
2023-02-02T13:11:52.095Z,8.28
2023-02-02T13:14:29.357Z,8.27
2023-02-02T13:21:06.718Z,8.20
2023-02-02T13:24:36.354Z,8.19
2023-02-02T13:27:21.379Z,8.22
2023-02-02T13:29:56.623Z,8.19
2023-02-02T13:32:40.337Z,8.14
2023-02-02T13:36:34.341Z,8.13
2023-02-02T13:39:10.813Z,8.11
2023-02-02T13:41:38.102Z,8.13
2023-02-02T13:44:39.863Z,8.12
2023-02-02T13:47:17.391Z,8.12
2023-02-02T13:50:05.689Z,8.11
2023-02-02T13:53:02.245Z,8.10
2023-02-02T13:55:46.527Z,8.12
2023-02-02T13:58:28.133Z,8.15
2023-02-02T14:01:01.794Z,8.19
2023-02-02T14:15:16.826Z,8.21
2023-02-02T14:17:43.318Z,8.24
2023-02-02T14:20:40.866Z,8.21
2023-02-02T14:23:47.713Z,8.19
2023-02-02T14:26:41.338Z,8.18
2023-02-02T14:29:31.658Z,8.14
2023-02-02T14:32:57.709Z,8.13
2023-02-02T14:35:25.871Z,8.11
2023-02-02T14:41:15.586Z,8.09
2023-02-02T14:44:05.721Z,8.08
2023-02-02T14:46:36.875Z,8.04
2023-02-02T14:49:03.548Z,8.01
2023-02-02T14:51:33.147Z,8.00
2023-02-02T14:54:03.014Z,7.98
2023-02-02T14:56:40.256Z,7.97
2023-02-02T14:59:14.127Z,7.96
2023-02-02T15:01:41.336Z,7.93
2023-02-02T15:04:20.097Z,7.93
2023-02-02T15:06:48.683Z,7.91
2023-02-02T15:09:26.541Z,7.91
2023-02-02T15:12:00.997Z,7.90
2023-02-02T15:14:46.380Z,7.89
2023-02-02T15:17:25.146Z,7.90
2023-02-02T15:20:17.889Z,7.90
2023-02-02T15:22:47.436Z,7.88
2023-02-02T15:25:21.453Z,7.90
2023-02-02T15:28:20.145Z,7.88
2023-02-02T15:30:53.112Z,7.87
2023-02-02T15:33:42.143Z,7.87
2023-02-02T15:36:23.710Z,7.85
2023-02-02T15:38:54.039Z,7.86
2023-02-02T15:41:20.892Z,7.89
2023-02-02T15:43:47.430Z,7.88
2023-02-02T15:46:24.238Z,7.89
2023-02-02T15:49:33.278Z,7.90
2023-02-02T15:52:03.963Z,7.91
2023-02-02T15:54:34.847Z,7.91
2023-02-02T15:57:03.319Z,7.93
2023-02-02T15:59:37.430Z,7.94
2023-02-02T16:02:07.051Z,7.94
2023-02-02T16:04:37.473Z,7.93
2023-02-02T16:07:06.632Z,7.91
2023-02-02T16:09:35.720Z,7.91
2023-02-02T16:12:05.298Z,7.90
2023-02-02T16:14:38.247Z,7.87
2023-02-02T16:17:31.100Z,7.87
2023-02-02T16:20:14.263Z,7.87
2023-02-02T16:22:43.636Z,7.87
2023-02-02T16:25:19.236Z,7.84
2023-02-02T16:27:47.808Z,7.82
2023-02-02T16:30:26.789Z,7.82
2023-02-02T16:32:53.592Z,7.82
2023-02-02T16:35:37.746Z,7.79
2023-02-02T16:38:26.157Z,7.79
2023-02-02T16:41:08.108Z,7.79
2023-02-02T16:43:36.271Z,7.76
2023-02-02T16:46:07.288Z,7.77
2023-02-02T16:48:42.089Z,7.75
2023-02-02T16:51:20.537Z,7.74
2023-02-02T16:53:46.923Z,7.72
2023-02-02T16:56:22.628Z,7.72
2023-02-02T16:58:49.238Z,7.71
2023-02-02T17:01:16.939Z,7.70
2023-02-02T17:03:52.557Z,7.69
2023-02-02T17:06:41.791Z,7.69
2023-02-02T17:09:35.146Z,7.68
2023-02-02T17:12:12.213Z,7.67
2023-02-02T17:14:54.105Z,7.67
2023-02-02T17:17:20.953Z,7.67
2023-02-02T17:19:47.874Z,7.65
2023-02-02T17:22:16.546Z,7.65
2023-02-02T17:24:46.273Z,7.65
2023-02-02T17:27:17.651Z,7.65
2023-02-02T17:29:45.777Z,7.65
2023-02-02T17:32:16.437Z,7.65
2023-02-02T17:34:43.224Z,7.64
2023-02-02T17:37:10.205Z,7.63
2023-02-02T17:39:36.742Z,7.62
2023-02-02T17:42:05.308Z,7.62
2023-02-02T17:44:31.987Z,7.62
2023-02-02T17:46:58.395Z,7.62
2023-02-02T17:49:24.890Z,7.63
2023-02-02T17:51:51.459Z,7.63
2023-02-02T17:54:18.567Z,7.62
2023-02-02T17:56:46.792Z,7.61
2023-02-02T17:59:13.276Z,7.61
2023-02-02T18:01:41.586Z,7.62
2023-02-02T18:04:12.555Z,7.61
2023-02-02T18:06:40.130Z,7.61
2023-02-02T18:09:06.549Z,7.60
2023-02-02T18:11:33.187Z,7.60
2023-02-02T18:13:59.625Z,7.61
2023-02-02T18:16:26.134Z,7.60
2023-02-02T18:18:53.711Z,7.61
2023-02-02T18:21:21.325Z,7.60
2023-02-02T18:23:49.036Z,7.60
2023-02-02T18:26:18.822Z,7.61
2023-02-02T18:28:48.812Z,7.60
2023-02-02T18:31:19.408Z,7.61
2023-02-02T18:33:47.365Z,7.61
2023-02-02T18:36:17.791Z,7.61
2023-02-02T18:38:47.581Z,7.61
2023-02-02T18:41:15.708Z,7.61
2023-02-02T18:43:42.655Z,7.61
2023-02-02T18:46:15.991Z,7.62
2023-02-02T18:48:43.129Z,7.63
2023-02-02T18:51:16.113Z,7.62
2023-02-02T18:53:43.584Z,7.63
2023-02-02T18:56:12.837Z,7.64
2023-02-02T18:58:40.263Z,7.63
2023-02-02T19:01:12.434Z,7.62
2023-02-02T19:03:40.330Z,7.61
2023-02-02T19:06:27.347Z,7.59
2023-02-02T19:08:54.512Z,7.59
2023-02-02T19:11:23.530Z,7.57
2023-02-02T19:13:50.527Z,7.57
2023-02-02T19:16:28.819Z,7.57
2023-02-02T19:19:04.419Z,7.57
2023-02-02T19:21:31.055Z,7.55
2023-02-02T19:23:59.457Z,7.49
2023-02-02T19:26:28.034Z,7.45
2023-02-02T19:29:01.560Z,7.41
2023-02-02T19:31:28.289Z,7.36
2023-02-02T19:33:54.947Z,7.34
2023-02-02T19:36:24.155Z,7.32
2023-02-02T19:38:55.768Z,7.31
2023-02-02T19:41:24.824Z,7.29
2023-02-02T19:44:06.237Z,7.31
2023-02-02T19:46:40.908Z,7.31
2023-02-02T19:49:27.272Z,7.30
2023-02-02T19:51:55.980Z,7.30
2023-02-02T19:54:40.805Z,7.28
2023-02-02T19:57:13.252Z,7.27
2023-02-02T19:59:42.946Z,7.25
2023-02-02T20:02:36.910Z,7.24
2023-02-02T20:05:15.117Z,7.23
2023-02-02T20:07:41.611Z,7.20
2023-02-02T20:10:26.560Z,7.19
2023-02-02T20:12:53.488Z,7.16
2023-02-02T20:15:36.087Z,7.15
2023-02-02T20:18:05.698Z,7.17
2023-02-02T20:20:40.425Z,7.20
2023-02-02T20:23:27.694Z,7.21
2023-02-02T20:25:54.275Z,7.23
2023-02-02T20:28:33.345Z,7.24
2023-02-02T20:31:02.912Z,7.23
2023-02-02T20:33:29.586Z,7.26
2023-02-02T20:35:56.309Z,7.26
2023-02-02T20:38:24.250Z,7.27
2023-02-02T20:40:52.189Z,7.26
2023-02-02T20:43:18.729Z,7.25
2023-02-02T20:45:45.400Z,7.28
2023-02-02T20:48:12.577Z,7.28
2023-02-02T20:50:40.594Z,7.30
2023-02-02T20:53:07.252Z,7.32
2023-02-02T20:55:36.139Z,7.31
2023-02-02T20:58:04.079Z,7.35
2023-02-02T21:00:31.478Z,7.37
2023-02-02T21:02:58.453Z,7.42
2023-02-02T21:05:25.020Z,7.47
2023-02-02T21:07:54.825Z,7.51
2023-02-02T21:10:25.958Z,7.52
2023-02-02T21:12:52.652Z,7.53
2023-02-02T21:15:19.600Z,7.54
2023-02-02T21:17:46.260Z,7.57
2023-02-02T21:20:14.841Z,7.59
2023-02-02T21:22:42.291Z,7.61
2023-02-02T21:25:10.034Z,7.63
2023-02-02T21:27:38.718Z,7.65
2023-02-02T21:30:05.744Z,7.66
2023-02-02T21:32:33.601Z,7.68
2023-02-02T21:35:00.107Z,7.67
2023-02-02T21:37:26.661Z,7.68
2023-02-02T21:39:58.044Z,7.69
2023-02-02T21:42:26.008Z,7.69
2023-02-02T21:45:07.988Z,7.70
2023-02-02T21:47:36.199Z,7.71
2023-02-02T21:50:28.432Z,7.75
2023-02-02T21:53:21.279Z,7.77
2023-02-02T21:55:52.627Z,7.78
2023-02-02T21:58:21.914Z,7.82
2023-02-02T22:00:50.017Z,7.84
2023-02-02T22:03:28.170Z,7.87
2023-02-02T22:06:09.974Z,7.91
2023-02-02T22:08:39.309Z,7.92
2023-02-02T22:11:29.625Z,7.94
2023-02-02T22:14:16.888Z,7.94
2023-02-02T22:16:48.614Z,7.95
2023-02-02T22:19:24.822Z,7.95
2023-02-02T22:21:51.808Z,7.96
2023-02-02T22:24:18.383Z,8.00
2023-02-02T22:26:44.891Z,8.01
2023-02-02T22:29:16.637Z,8.02
2023-02-02T22:31:43.371Z,8.02
2023-02-02T22:34:10.074Z,8.00
2023-02-02T22:36:36.946Z,8.02
2023-02-02T22:39:03.577Z,8.05
2023-02-02T22:41:30.154Z,8.05
2023-02-02T22:43:56.744Z,8.06
2023-02-02T22:46:23.304Z,8.06
2023-02-02T22:48:49.791Z,8.04
2023-02-02T22:51:16.603Z,8.02
2023-02-02T22:53:43.224Z,8.01
2023-02-02T22:56:09.718Z,8.00
2023-02-02T22:58:36.169Z,8.02
2023-02-02T23:01:02.741Z,8.03
2023-02-02T23:03:29.371Z,7.99
2023-02-02T23:05:55.875Z,7.99
2023-02-02T23:08:22.431Z,8.00
2023-02-02T23:10:48.885Z,7.98
2023-02-02T23:13:15.330Z,7.95
2023-02-02T23:15:41.883Z,7.94
2023-02-02T23:18:08.389Z,7.93
2023-02-02T23:20:35.015Z,7.94
2023-02-02T23:23:01.578Z,7.92
2023-02-02T23:25:28.070Z,7.93
2023-02-02T23:27:54.640Z,7.95
2023-02-02T23:30:24.225Z,7.96
2023-02-02T23:32:51.056Z,7.95
2023-02-02T23:35:17.674Z,7.97
2023-02-02T23:37:44.191Z,7.97
2023-02-02T23:40:11.406Z,7.97
2023-02-02T23:42:37.883Z,7.97
2023-02-02T23:45:05.238Z,7.97
2023-02-02T23:47:34.789Z,7.96
2023-02-02T23:50:04.408Z,7.96
2023-02-02T23:52:32.873Z,7.98
2023-02-02T23:55:00.258Z,8.00
2023-02-02T23:57:26.993Z,8.00
2023-02-02T23:59:53.475Z,8.02
